sensor_id;sensor_type;location;lat;lon;timestamp;P1;durP1;ratioP1;P2;durP2;ratioP2
29934;SDS011;19905;53.370;-6.314;2024-01-07T00:02:15;45.92;;;20.90;;
29934;SDS011;19905;53.370;-6.314;2024-01-07T00:04:45;39.47;;;21.02;;
29934;SDS011;19905;53.370;-6.314;2024-01-07T00:07:14;43.50;;;20.70;;
29934;SDS011;19905;53.370;-6.314;2024-01-07T00:09:42;42.38;;;19.85;;
29934;SDS011;19905;53.370;-6.314;2024-01-07T00:12:11;41.00;;;19.48;;
29934;SDS011;19905;53.370;-6.314;2024-01-07T00:14:39;45.33;;;19.50;;
29934;SDS011;19905;53.370;-6.314;2024-01-07T00:17:09;41.65;;;18.20;;
29934;SDS011;19905;53.370;-6.314;2024-01-07T00:19:37;34.63;;;17.08;;
29934;SDS011;19905;53.370;-6.314;2024-01-07T00:22:09;40.45;;;17.83;;
29934;SDS011;19905;53.370;-6.314;2024-01-07T00:24:37;35.50;;;18.17;;
29934;SDS011;19905;53.370;-6.314;2024-01-07T00:27:06;37.30;;;16.95;;
29934;SDS011;19905;53.370;-6.314;2024-01-07T00:29:35;40.20;;;17.75;;
29934;SDS011;19905;53.370;-6.314;2024-01-07T00:32:04;45.22;;;17.92;;
29934;SDS011;19905;53.370;-6.314;2024-01-07T00:34:32;35.05;;;17.95;;
29934;SDS011;19905;53.370;-6.314;2024-01-07T00:37:00;32.38;;;16.33;;
29934;SDS011;19905;53.370;-6.314;2024-01-07T00:39:30;34.90;;;17.38;;
29934;SDS011;19905;53.370;-6.314;2024-01-07T00:41:59;31.42;;;15.70;;
29934;SDS011;19905;53.370;-6.314;2024-01-07T00:44:27;34.58;;;15.25;;
29934;SDS011;19905;53.370;-6.314;2024-01-07T00:46:56;33.05;;;15.35;;
29934;SDS011;19905;53.370;-6.314;2024-01-07T00:49:25;35.83;;;15.82;;
29934;SDS011;19905;53.370;-6.314;2024-01-07T00:51:55;32.63;;;15.30;;
29934;SDS011;19905;53.370;-6.314;2024-01-07T00:54:23;36.17;;;15.45;;
29934;SDS011;19905;53.370;-6.314;2024-01-07T00:56:53;36.13;;;15.48;;
29934;SDS011;19905;53.370;-6.314;2024-01-07T00:59:21;39.78;;;17.48;;
29934;SDS011;19905;53.370;-6.314;2024-01-07T01:01:50;40.03;;;18.83;;
29934;SDS011;19905;53.370;-6.314;2024-01-07T01:04:18;35.70;;;18.08;;
29934;SDS011;19905;53.370;-6.314;2024-01-07T01:06:48;36.90;;;17.33;;
29934;SDS011;19905;53.370;-6.314;2024-01-07T01:09:16;38.97;;;16.92;;
29934;SDS011;19905;53.370;-6.314;2024-01-07T01:11:44;32.83;;;16.17;;
29934;SDS011;19905;53.370;-6.314;2024-01-07T01:14:14;37.55;;;16.08;;
29934;SDS011;19905;53.370;-6.314;2024-01-07T01:16:42;31.08;;;14.73;;
29934;SDS011;19905;53.370;-6.314;2024-01-07T01:19:10;34.42;;;15.38;;
29934;SDS011;19905;53.370;-6.314;2024-01-07T01:21:39;30.30;;;14.52;;
29934;SDS011;19905;53.370;-6.314;2024-01-07T01:24:07;35.88;;;15.00;;
29934;SDS011;19905;53.370;-6.314;2024-01-07T01:26:37;37.78;;;15.35;;
29934;SDS011;19905;53.370;-6.314;2024-01-07T01:29:06;33.28;;;14.18;;
29934;SDS011;19905;53.370;-6.314;2024-01-07T01:31:36;34.30;;;13.93;;
29934;SDS011;19905;53.370;-6.314;2024-01-07T01:34:04;36.33;;;14.60;;
29934;SDS011;19905;53.370;-6.314;2024-01-07T01:36:32;34.45;;;15.13;;
29934;SDS011;19905;53.370;-6.314;2024-01-07T01:39:01;31.80;;;14.80;;
29934;SDS011;19905;53.370;-6.314;2024-01-07T01:41:29;31.10;;;14.00;;
29934;SDS011;19905;53.370;-6.314;2024-01-07T01:43:57;28.90;;;14.30;;
29934;SDS011;19905;53.370;-6.314;2024-01-07T01:46:26;33.38;;;13.50;;
29934;SDS011;19905;53.370;-6.314;2024-01-07T01:48:59;31.23;;;13.55;;
29934;SDS011;19905;53.370;-6.314;2024-01-07T01:51:28;31.70;;;15.10;;
29934;SDS011;19905;53.370;-6.314;2024-01-07T01:53:58;32.95;;;14.98;;
29934;SDS011;19905;53.370;-6.314;2024-01-07T01:56:27;30.27;;;14.52;;
29934;SDS011;19905;53.370;-6.314;2024-01-07T01:58:56;37.03;;;14.50;;
29934;SDS011;19905;53.370;-6.314;2024-01-07T02:01:25;29.95;;;14.23;;
29934;SDS011;19905;53.370;-6.314;2024-01-07T02:03:54;34.38;;;15.18;;
29934;SDS011;19905;53.370;-6.314;2024-01-07T02:06:24;35.63;;;15.40;;
29934;SDS011;19905;53.370;-6.314;2024-01-07T02:08:58;33.72;;;14.73;;
29934;SDS011;19905;53.370;-6.314;2024-01-07T02:11:27;32.63;;;15.05;;
29934;SDS011;19905;53.370;-6.314;2024-01-07T02:13:55;31.60;;;15.00;;
29934;SDS011;19905;53.370;-6.314;2024-01-07T02:16:23;29.85;;;14.95;;
29934;SDS011;19905;53.370;-6.314;2024-01-07T02:18:52;28.13;;;13.82;;
29934;SDS011;19905;53.370;-6.314;2024-01-07T02:21:21;34.83;;;14.98;;
29934;SDS011;19905;53.370;-6.314;2024-01-07T02:23:51;29.40;;;14.77;;
29934;SDS011;19905;53.370;-6.314;2024-01-07T02:26:20;37.28;;;15.35;;
29934;SDS011;19905;53.370;-6.314;2024-01-07T02:28:49;32.17;;;15.55;;
29934;SDS011;19905;53.370;-6.314;2024-01-07T02:31:17;34.35;;;14.95;;
29934;SDS011;19905;53.370;-6.314;2024-01-07T02:33:46;29.25;;;14.65;;
29934;SDS011;19905;53.370;-6.314;2024-01-07T02:36:15;34.75;;;14.65;;
29934;SDS011;19905;53.370;-6.314;2024-01-07T02:38:44;39.28;;;16.25;;
29934;SDS011;19905;53.370;-6.314;2024-01-07T02:41:12;35.28;;;13.50;;
29934;SDS011;19905;53.370;-6.314;2024-01-07T02:43:42;38.08;;;13.85;;
29934;SDS011;19905;53.370;-6.314;2024-01-07T02:46:10;31.92;;;13.10;;
29934;SDS011;19905;53.370;-6.314;2024-01-07T02:48:39;27.75;;;12.68;;
29934;SDS011;19905;53.370;-6.314;2024-01-07T02:51:08;35.88;;;14.13;;
29934;SDS011;19905;53.370;-6.314;2024-01-07T02:53:36;28.95;;;12.95;;
29934;SDS011;19905;53.370;-6.314;2024-01-07T02:56:05;30.67;;;13.10;;
29934;SDS011;19905;53.370;-6.314;2024-01-07T02:58:35;34.22;;;13.02;;
29934;SDS011;19905;53.370;-6.314;2024-01-07T03:01:07;36.42;;;14.60;;
29934;SDS011;19905;53.370;-6.314;2024-01-07T03:03:36;36.33;;;15.23;;
29934;SDS011;19905;53.370;-6.314;2024-01-07T03:08:44;31.83;;;15.25;;
29934;SDS011;19905;53.370;-6.314;2024-01-07T03:11:12;38.80;;;17.15;;
29934;SDS011;19905;53.370;-6.314;2024-01-07T03:13:41;36.30;;;17.35;;
29934;SDS011;19905;53.370;-6.314;2024-01-07T03:16:19;32.45;;;15.30;;
29934;SDS011;19905;53.370;-6.314;2024-01-07T03:18:48;31.42;;;15.43;;
29934;SDS011;19905;53.370;-6.314;2024-01-07T03:24:16;30.65;;;13.82;;
29934;SDS011;19905;53.370;-6.314;2024-01-07T03:26:44;36.40;;;15.25;;
29934;SDS011;19905;53.370;-6.314;2024-01-07T03:29:13;32.10;;;14.93;;
29934;SDS011;19905;53.370;-6.314;2024-01-07T03:31:43;33.67;;;15.15;;
29934;SDS011;19905;53.370;-6.314;2024-01-07T03:34:12;28.02;;;14.77;;
29934;SDS011;19905;53.370;-6.314;2024-01-07T03:36:41;34.03;;;15.35;;
29934;SDS011;19905;53.370;-6.314;2024-01-07T03:39:09;37.55;;;15.60;;
29934;SDS011;19905;53.370;-6.314;2024-01-07T03:41:38;36.00;;;16.15;;
29934;SDS011;19905;53.370;-6.314;2024-01-07T03:44:07;34.60;;;15.68;;
29934;SDS011;19905;53.370;-6.314;2024-01-07T03:46:35;37.13;;;15.45;;
29934;SDS011;19905;53.370;-6.314;2024-01-07T03:49:05;31.67;;;13.73;;
29934;SDS011;19905;53.370;-6.314;2024-01-07T03:51:34;28.63;;;14.27;;
29934;SDS011;19905;53.370;-6.314;2024-01-07T03:54:02;32.13;;;14.52;;
29934;SDS011;19905;53.370;-6.314;2024-01-07T03:56:30;34.88;;;14.30;;
29934;SDS011;19905;53.370;-6.314;2024-01-07T03:58:58;29.20;;;14.18;;
29934;SDS011;19905;53.370;-6.314;2024-01-07T04:01:26;36.13;;;14.07;;
29934;SDS011;19905;53.370;-6.314;2024-01-07T04:03:55;29.73;;;13.30;;
29934;SDS011;19905;53.370;-6.314;2024-01-07T04:06:25;31.67;;;13.70;;
29934;SDS011;19905;53.370;-6.314;2024-01-07T04:08:53;28.02;;;14.07;;
29934;SDS011;19905;53.370;-6.314;2024-01-07T04:11:21;28.83;;;13.65;;
29934;SDS011;19905;53.370;-6.314;2024-01-07T04:13:50;25.98;;;14.50;;
29934;SDS011;19905;53.370;-6.314;2024-01-07T04:16:18;31.02;;;13.93;;
29934;SDS011;19905;53.370;-6.314;2024-01-07T04:18:47;38.20;;;16.35;;
29934;SDS011;19905;53.370;-6.314;2024-01-07T04:21:20;29.50;;;14.10;;
29934;SDS011;19905;53.370;-6.314;2024-01-07T04:23:50;27.40;;;13.93;;
29934;SDS011;19905;53.370;-6.314;2024-01-07T04:26:18;29.40;;;13.57;;
29934;SDS011;19905;53.370;-6.314;2024-01-07T04:28:46;34.17;;;14.65;;
29934;SDS011;19905;53.370;-6.314;2024-01-07T04:31:15;26.80;;;13.68;;
29934;SDS011;19905;53.370;-6.314;2024-01-07T04:33:43;28.23;;;12.95;;
29934;SDS011;19905;53.370;-6.314;2024-01-07T04:36:11;32.25;;;13.68;;
29934;SDS011;19905;53.370;-6.314;2024-01-07T04:38:40;34.03;;;13.40;;
29934;SDS011;19905;53.370;-6.314;2024-01-07T04:41:10;30.38;;;13.80;;
29934;SDS011;19905;53.370;-6.314;2024-01-07T04:43:38;31.73;;;13.27;;
29934;SDS011;19905;53.370;-6.314;2024-01-07T04:46:07;28.70;;;13.10;;
29934;SDS011;19905;53.370;-6.314;2024-01-07T04:48:37;25.40;;;12.35;;
29934;SDS011;19905;53.370;-6.314;2024-01-07T04:51:06;24.33;;;11.82;;
29934;SDS011;19905;53.370;-6.314;2024-01-07T04:53:35;27.77;;;11.50;;
29934;SDS011;19905;53.370;-6.314;2024-01-07T04:56:05;24.63;;;11.30;;
29934;SDS011;19905;53.370;-6.314;2024-01-07T04:58:34;22.65;;;11.07;;
29934;SDS011;19905;53.370;-6.314;2024-01-07T05:01:03;26.65;;;11.45;;
29934;SDS011;19905;53.370;-6.314;2024-01-07T05:03:32;26.85;;;12.15;;
29934;SDS011;19905;53.370;-6.314;2024-01-07T05:06:00;32.58;;;13.70;;
29934;SDS011;19905;53.370;-6.314;2024-01-07T05:08:29;26.45;;;12.80;;
29934;SDS011;19905;53.370;-6.314;2024-01-07T05:10:57;33.00;;;13.52;;
29934;SDS011;19905;53.370;-6.314;2024-01-07T05:13:25;24.60;;;12.25;;
29934;SDS011;19905;53.370;-6.314;2024-01-07T05:15:55;24.77;;;13.68;;
29934;SDS011;19905;53.370;-6.314;2024-01-07T05:18:24;32.97;;;14.48;;
29934;SDS011;19905;53.370;-6.314;2024-01-07T05:20:52;28.27;;;12.65;;
29934;SDS011;19905;53.370;-6.314;2024-01-07T05:23:21;27.02;;;11.40;;
29934;SDS011;19905;53.370;-6.314;2024-01-07T05:25:49;28.98;;;12.65;;
29934;SDS011;19905;53.370;-6.314;2024-01-07T05:28:18;30.08;;;13.18;;
29934;SDS011;19905;53.370;-6.314;2024-01-07T05:30:48;29.60;;;12.70;;
29934;SDS011;19905;53.370;-6.314;2024-01-07T05:33:19;27.20;;;13.45;;
29934;SDS011;19905;53.370;-6.314;2024-01-07T05:35:47;28.88;;;14.30;;
29934;SDS011;19905;53.370;-6.314;2024-01-07T05:38:16;38.40;;;14.65;;
29934;SDS011;19905;53.370;-6.314;2024-01-07T05:40:44;36.85;;;14.38;;
29934;SDS011;19905;53.370;-6.314;2024-01-07T05:43:12;34.65;;;14.73;;
29934;SDS011;19905;53.370;-6.314;2024-01-07T05:45:40;33.67;;;14.90;;
29934;SDS011;19905;53.370;-6.314;2024-01-07T05:48:08;30.42;;;13.20;;
29934;SDS011;19905;53.370;-6.314;2024-01-07T05:50:38;33.13;;;14.20;;
29934;SDS011;19905;53.370;-6.314;2024-01-07T05:53:06;30.48;;;13.43;;
29934;SDS011;19905;53.370;-6.314;2024-01-07T05:55:35;33.90;;;14.93;;
29934;SDS011;19905;53.370;-6.314;2024-01-07T05:58:05;36.15;;;14.05;;
29934;SDS011;19905;53.370;-6.314;2024-01-07T06:00:33;30.92;;;13.95;;
29934;SDS011;19905;53.370;-6.314;2024-01-07T06:03:02;35.20;;;14.95;;
29934;SDS011;19905;53.370;-6.314;2024-01-07T06:05:30;40.35;;;15.73;;
29934;SDS011;19905;53.370;-6.314;2024-01-07T06:08:00;35.03;;;15.25;;
29934;SDS011;19905;53.370;-6.314;2024-01-07T06:10:28;39.15;;;15.70;;
29934;SDS011;19905;53.370;-6.314;2024-01-07T06:12:57;42.15;;;15.35;;
29934;SDS011;19905;53.370;-6.314;2024-01-07T06:15:25;46.38;;;15.88;;
29934;SDS011;19905;53.370;-6.314;2024-01-07T06:17:54;55.60;;;14.13;;
29934;SDS011;19905;53.370;-6.314;2024-01-07T06:20:22;93.38;;;13.75;;
29934;SDS011;19905;53.370;-6.314;2024-01-07T06:22:51;111.70;;;15.32;;
29934;SDS011;19905;53.370;-6.314;2024-01-07T06:25:20;130.02;;;16.30;;
29934;SDS011;19905;53.370;-6.314;2024-01-07T06:27:49;113.30;;;15.10;;
29934;SDS011;19905;53.370;-6.314;2024-01-07T06:30:18;133.80;;;15.52;;
29934;SDS011;19905;53.370;-6.314;2024-01-07T06:32:47;101.65;;;15.48;;
29934;SDS011;19905;53.370;-6.314;2024-01-07T06:35:16;101.60;;;16.13;;
29934;SDS011;19905;53.370;-6.314;2024-01-07T06:37:44;132.27;;;15.73;;
29934;SDS011;19905;53.370;-6.314;2024-01-07T06:40:12;68.00;;;14.93;;
29934;SDS011;19905;53.370;-6.314;2024-01-07T06:42:42;62.80;;;14.10;;
29934;SDS011;19905;53.370;-6.314;2024-01-07T06:45:11;85.47;;;15.48;;
29934;SDS011;19905;53.370;-6.314;2024-01-07T06:47:39;41.97;;;14.30;;
29934;SDS011;19905;53.370;-6.314;2024-01-07T06:50:09;59.53;;;14.85;;
29934;SDS011;19905;53.370;-6.314;2024-01-07T06:52:41;69.05;;;14.63;;
29934;SDS011;19905;53.370;-6.314;2024-01-07T06:55:09;71.65;;;15.10;;
29934;SDS011;19905;53.370;-6.314;2024-01-07T06:57:37;112.70;;;14.65;;
29934;SDS011;19905;53.370;-6.314;2024-01-07T07:00:08;76.85;;;14.20;;
29934;SDS011;19905;53.370;-6.314;2024-01-07T07:02:36;87.40;;;14.98;;
29934;SDS011;19905;53.370;-6.314;2024-01-07T07:05:04;106.57;;;14.20;;
29934;SDS011;19905;53.370;-6.314;2024-01-07T07:07:33;128.65;;;15.20;;
29934;SDS011;19905;53.370;-6.314;2024-01-07T07:10:03;111.10;;;14.40;;
29934;SDS011;19905;53.370;-6.314;2024-01-07T07:12:31;114.53;;;15.20;;
29934;SDS011;19905;53.370;-6.314;2024-01-07T07:15:00;111.38;;;15.43;;
29934;SDS011;19905;53.370;-6.314;2024-01-07T07:17:30;104.75;;;14.52;;
29934;SDS011;19905;53.370;-6.314;2024-01-07T07:19:59;91.60;;;14.95;;
29934;SDS011;19905;53.370;-6.314;2024-01-07T07:22:28;77.65;;;14.70;;
29934;SDS011;19905;53.370;-6.314;2024-01-07T07:24:56;95.47;;;14.43;;
29934;SDS011;19905;53.370;-6.314;2024-01-07T07:27:27;78.90;;;15.35;;
29934;SDS011;19905;53.370;-6.314;2024-01-07T07:29:56;115.50;;;15.90;;
29934;SDS011;19905;53.370;-6.314;2024-01-07T07:32:24;102.88;;;15.45;;
29934;SDS011;19905;53.370;-6.314;2024-01-07T07:34:54;103.30;;;15.30;;
29934;SDS011;19905;53.370;-6.314;2024-01-07T07:37:22;89.72;;;16.38;;
29934;SDS011;19905;53.370;-6.314;2024-01-07T07:39:51;73.60;;;15.52;;
29934;SDS011;19905;53.370;-6.314;2024-01-07T07:42:20;98.50;;;15.43;;
29934;SDS011;19905;53.370;-6.314;2024-01-07T07:44:48;111.90;;;16.40;;
29934;SDS011;19905;53.370;-6.314;2024-01-07T07:47:16;81.03;;;14.10;;
29934;SDS011;19905;53.370;-6.314;2024-01-07T07:49:45;92.18;;;14.95;;
29934;SDS011;19905;53.370;-6.314;2024-01-07T07:52:15;85.65;;;14.75;;
29934;SDS011;19905;53.370;-6.314;2024-01-07T07:54:48;120.65;;;15.73;;
29934;SDS011;19905;53.370;-6.314;2024-01-07T07:57:17;83.90;;;14.32;;
29934;SDS011;19905;53.370;-6.314;2024-01-07T07:59:47;84.60;;;16.40;;
29934;SDS011;19905;53.370;-6.314;2024-01-07T08:02:16;118.45;;;17.15;;
29934;SDS011;19905;53.370;-6.314;2024-01-07T08:04:44;146.30;;;16.60;;
29934;SDS011;19905;53.370;-6.314;2024-01-07T08:07:12;97.72;;;15.60;;
29934;SDS011;19905;53.370;-6.314;2024-01-07T08:09:42;108.50;;;16.08;;
29934;SDS011;19905;53.370;-6.314;2024-01-07T08:12:11;103.72;;;14.95;;
29934;SDS011;19905;53.370;-6.314;2024-01-07T08:14:39;130.68;;;16.35;;
29934;SDS011;19905;53.370;-6.314;2024-01-07T08:17:07;131.40;;;16.48;;
29934;SDS011;19905;53.370;-6.314;2024-01-07T08:19:36;84.68;;;15.50;;
29934;SDS011;19905;53.370;-6.314;2024-01-07T08:22:04;107.75;;;15.77;;
29934;SDS011;19905;53.370;-6.314;2024-01-07T08:24:32;116.07;;;15.43;;
29934;SDS011;19905;53.370;-6.314;2024-01-07T08:27:02;177.88;;;17.45;;
29934;SDS011;19905;53.370;-6.314;2024-01-07T08:29:31;106.68;;;16.80;;
29934;SDS011;19905;53.370;-6.314;2024-01-07T08:31:59;167.55;;;17.25;;
29934;SDS011;19905;53.370;-6.314;2024-01-07T08:34:29;120.00;;;17.23;;
29934;SDS011;19905;53.370;-6.314;2024-01-07T08:36:57;132.63;;;16.00;;
29934;SDS011;19905;53.370;-6.314;2024-01-07T08:39:25;130.43;;;16.33;;
29934;SDS011;19905;53.370;-6.314;2024-01-07T08:41:56;142.63;;;15.95;;
29934;SDS011;19905;53.370;-6.314;2024-01-07T08:44:26;169.63;;;15.07;;
29934;SDS011;19905;53.370;-6.314;2024-01-07T08:46:54;123.53;;;16.38;;
29934;SDS011;19905;53.370;-6.314;2024-01-07T08:49:22;144.30;;;17.33;;
29934;SDS011;19905;53.370;-6.314;2024-01-07T08:51:51;97.32;;;16.48;;
29934;SDS011;19905;53.370;-6.314;2024-01-07T08:54:20;114.30;;;17.90;;
29934;SDS011;19905;53.370;-6.314;2024-01-07T08:56:48;142.70;;;16.48;;
29934;SDS011;19905;53.370;-6.314;2024-01-07T08:59:18;89.63;;;15.57;;
29934;SDS011;19905;53.370;-6.314;2024-01-07T09:01:48;101.90;;;19.90;;
29934;SDS011;19905;53.370;-6.314;2024-01-07T09:04:17;133.07;;;22.15;;
29934;SDS011;19905;53.370;-6.314;2024-01-07T09:06:46;191.55;;;23.58;;
29934;SDS011;19905;53.370;-6.314;2024-01-07T09:09:18;144.45;;;18.75;;
29934;SDS011;19905;53.370;-6.314;2024-01-07T09:11:47;119.35;;;16.30;;
29934;SDS011;19905;53.370;-6.314;2024-01-07T09:14:15;149.45;;;17.75;;
29934;SDS011;19905;53.370;-6.314;2024-01-07T09:16:44;120.53;;;16.27;;
29934;SDS011;19905;53.370;-6.314;2024-01-07T09:19:14;100.90;;;15.43;;
29934;SDS011;19905;53.370;-6.314;2024-01-07T09:21:42;173.18;;;18.25;;
29934;SDS011;19905;53.370;-6.314;2024-01-07T09:24:11;132.10;;;14.30;;
29934;SDS011;19905;53.370;-6.314;2024-01-07T09:26:41;154.40;;;16.42;;
29934;SDS011;19905;53.370;-6.314;2024-01-07T09:29:10;190.68;;;16.27;;
29934;SDS011;19905;53.370;-6.314;2024-01-07T09:31:38;91.07;;;15.88;;
29934;SDS011;19905;53.370;-6.314;2024-01-07T09:34:07;190.23;;;16.63;;
29934;SDS011;19905;53.370;-6.314;2024-01-07T09:36:36;118.10;;;15.88;;
29934;SDS011;19905;53.370;-6.314;2024-01-07T09:39:04;113.75;;;16.80;;
29934;SDS011;19905;53.370;-6.314;2024-01-07T09:41:33;179.82;;;18.67;;
29934;SDS011;19905;53.370;-6.314;2024-01-07T09:44:02;146.05;;;19.48;;
29934;SDS011;19905;53.370;-6.314;2024-01-07T09:46:31;131.73;;;17.42;;
29934;SDS011;19905;53.370;-6.314;2024-01-07T09:49:00;146.88;;;15.98;;
29934;SDS011;19905;53.370;-6.314;2024-01-07T09:51:28;145.77;;;15.65;;
29934;SDS011;19905;53.370;-6.314;2024-01-07T09:53:58;72.22;;;11.95;;
29934;SDS011;19905;53.370;-6.314;2024-01-07T09:56:34;198.27;;;17.50;;
29934;SDS011;19905;53.370;-6.314;2024-01-07T09:59:04;159.43;;;16.73;;
29934;SDS011;19905;53.370;-6.314;2024-01-07T10:01:33;110.22;;;16.20;;
29934;SDS011;19905;53.370;-6.314;2024-01-07T10:04:02;172.38;;;18.23;;
29934;SDS011;19905;53.370;-6.314;2024-01-07T10:06:31;137.07;;;16.88;;
29934;SDS011;19905;53.370;-6.314;2024-01-07T10:09:02;146.27;;;17.52;;
29934;SDS011;19905;53.370;-6.314;2024-01-07T10:11:30;172.30;;;17.83;;
29934;SDS011;19905;53.370;-6.314;2024-01-07T10:13:58;142.10;;;17.27;;
29934;SDS011;19905;53.370;-6.314;2024-01-07T10:16:28;133.18;;;18.52;;
29934;SDS011;19905;53.370;-6.314;2024-01-07T10:19:01;90.47;;;16.25;;
29934;SDS011;19905;53.370;-6.314;2024-01-07T10:21:30;108.63;;;16.33;;
29934;SDS011;19905;53.370;-6.314;2024-01-07T10:24:12;114.47;;;17.73;;
29934;SDS011;19905;53.370;-6.314;2024-01-07T10:26:41;100.07;;;15.23;;
29934;SDS011;19905;53.370;-6.314;2024-01-07T10:29:09;130.88;;;16.77;;
29934;SDS011;19905;53.370;-6.314;2024-01-07T10:31:39;161.27;;;17.10;;
29934;SDS011;19905;53.370;-6.314;2024-01-07T10:34:08;124.80;;;16.95;;
29934;SDS011;19905;53.370;-6.314;2024-01-07T10:36:38;119.55;;;20.50;;
29934;SDS011;19905;53.370;-6.314;2024-01-07T10:39:08;99.28;;;19.27;;
29934;SDS011;19905;53.370;-6.314;2024-01-07T10:41:39;146.55;;;16.98;;
29934;SDS011;19905;53.370;-6.314;2024-01-07T10:44:10;115.05;;;15.82;;
29934;SDS011;19905;53.370;-6.314;2024-01-07T10:46:40;103.18;;;16.02;;
29934;SDS011;19905;53.370;-6.314;2024-01-07T10:49:19;95.85;;;17.40;;
29934;SDS011;19905;53.370;-6.314;2024-01-07T10:51:49;96.60;;;18.77;;
29934;SDS011;19905;53.370;-6.314;2024-01-07T10:54:21;103.07;;;24.25;;
29934;SDS011;19905;53.370;-6.314;2024-01-07T10:56:53;101.38;;;22.10;;
29934;SDS011;19905;53.370;-6.314;2024-01-07T10:59:23;131.68;;;24.25;;
29934;SDS011;19905;53.370;-6.314;2024-01-07T11:01:51;112.40;;;18.45;;
29934;SDS011;19905;53.370;-6.314;2024-01-07T11:04:30;85.28;;;17.55;;
29934;SDS011;19905;53.370;-6.314;2024-01-07T11:07:03;113.93;;;16.00;;
29934;SDS011;19905;53.370;-6.314;2024-01-07T11:09:38;96.68;;;14.70;;
29934;SDS011;19905;53.370;-6.314;2024-01-07T11:14:47;120.88;;;16.00;;
29934;SDS011;19905;53.370;-6.314;2024-01-07T11:17:39;145.00;;;15.35;;
29934;SDS011;19905;53.370;-6.314;2024-01-07T11:20:12;123.60;;;14.52;;
29934;SDS011;19905;53.370;-6.314;2024-01-07T11:22:42;104.65;;;13.85;;
29934;SDS011;19905;53.370;-6.314;2024-01-07T11:25:27;101.47;;;14.52;;
29934;SDS011;19905;53.370;-6.314;2024-01-07T11:27:56;75.25;;;13.15;;
29934;SDS011;19905;53.370;-6.314;2024-01-07T11:41:12;82.20;;;15.02;;
29934;SDS011;19905;53.370;-6.314;2024-01-07T11:49:03;88.15;;;17.80;;
29934;SDS011;19905;53.370;-6.314;2024-01-07T11:51:32;58.53;;;15.60;;
29934;SDS011;19905;53.370;-6.314;2024-01-07T11:56:37;75.80;;;17.52;;
29934;SDS011;19905;53.370;-6.314;2024-01-07T11:59:11;88.63;;;17.25;;
29934;SDS011;19905;53.370;-6.314;2024-01-07T12:01:39;92.07;;;17.23;;
29934;SDS011;19905;53.370;-6.314;2024-01-07T12:04:09;95.72;;;16.17;;
29934;SDS011;19905;53.370;-6.314;2024-01-07T12:06:38;56.42;;;16.23;;
29934;SDS011;19905;53.370;-6.314;2024-01-07T12:09:07;50.58;;;17.23;;
29934;SDS011;19905;53.370;-6.314;2024-01-07T12:11:38;57.17;;;18.38;;
29934;SDS011;19905;53.370;-6.314;2024-01-07T12:14:11;59.17;;;18.08;;
29934;SDS011;19905;53.370;-6.314;2024-01-07T12:16:39;45.35;;;19.17;;
29934;SDS011;19905;53.370;-6.314;2024-01-07T12:19:08;40.78;;;16.90;;
29934;SDS011;19905;53.370;-6.314;2024-01-07T12:21:43;54.63;;;18.80;;
29934;SDS011;19905;53.370;-6.314;2024-01-07T12:24:12;50.25;;;19.48;;
29934;SDS011;19905;53.370;-6.314;2024-01-07T12:26:42;47.38;;;17.90;;
29934;SDS011;19905;53.370;-6.314;2024-01-07T12:29:12;38.00;;;18.42;;
29934;SDS011;19905;53.370;-6.314;2024-01-07T12:31:40;41.65;;;18.08;;
29934;SDS011;19905;53.370;-6.314;2024-01-07T12:34:11;40.40;;;17.65;;
29934;SDS011;19905;53.370;-6.314;2024-01-07T12:36:40;33.97;;;16.38;;
29934;SDS011;19905;53.370;-6.314;2024-01-07T12:39:08;36.22;;;16.13;;
29934;SDS011;19905;53.370;-6.314;2024-01-07T12:41:37;36.92;;;15.77;;
29934;SDS011;19905;53.370;-6.314;2024-01-07T12:44:08;32.72;;;16.25;;
29934;SDS011;19905;53.370;-6.314;2024-01-07T12:46:38;36.10;;;17.00;;
29934;SDS011;19905;53.370;-6.314;2024-01-07T12:49:06;37.15;;;16.92;;
29934;SDS011;19905;53.370;-6.314;2024-01-07T12:51:35;37.80;;;17.33;;
29934;SDS011;19905;53.370;-6.314;2024-01-07T12:54:03;40.88;;;19.23;;
29934;SDS011;19905;53.370;-6.314;2024-01-07T12:56:31;47.33;;;20.73;;
29934;SDS011;19905;53.370;-6.314;2024-01-07T12:59:00;46.03;;;20.25;;
29934;SDS011;19905;53.370;-6.314;2024-01-07T13:01:30;41.63;;;19.40;;
29934;SDS011;19905;53.370;-6.314;2024-01-07T13:03:59;47.17;;;20.83;;
29934;SDS011;19905;53.370;-6.314;2024-01-07T13:06:27;51.17;;;21.95;;
29934;SDS011;19905;53.370;-6.314;2024-01-07T13:08:56;45.45;;;21.90;;
29934;SDS011;19905;53.370;-6.314;2024-01-07T13:11:25;53.05;;;24.00;;
29934;SDS011;19905;53.370;-6.314;2024-01-07T13:13:53;47.63;;;21.67;;
29934;SDS011;19905;53.370;-6.314;2024-01-07T13:16:25;47.80;;;20.58;;
29934;SDS011;19905;53.370;-6.314;2024-01-07T13:18:55;46.83;;;22.38;;
29934;SDS011;19905;53.370;-6.314;2024-01-07T13:21:24;52.50;;;22.85;;
29934;SDS011;19905;53.370;-6.314;2024-01-07T13:23:52;55.78;;;23.65;;
29934;SDS011;19905;53.370;-6.314;2024-01-07T13:26:25;53.85;;;24.65;;
29934;SDS011;19905;53.370;-6.314;2024-01-07T13:28:53;53.65;;;24.27;;
29934;SDS011;19905;53.370;-6.314;2024-01-07T13:31:21;54.63;;;24.35;;
29934;SDS011;19905;53.370;-6.314;2024-01-07T13:33:50;58.53;;;25.77;;
29934;SDS011;19905;53.370;-6.314;2024-01-07T13:36:20;56.22;;;27.23;;
29934;SDS011;19905;53.370;-6.314;2024-01-07T13:38:48;54.10;;;25.00;;
29934;SDS011;19905;53.370;-6.314;2024-01-07T13:41:18;56.25;;;25.08;;
29934;SDS011;19905;53.370;-6.314;2024-01-07T13:43:46;52.25;;;23.75;;
29934;SDS011;19905;53.370;-6.314;2024-01-07T13:46:14;50.45;;;24.00;;
29934;SDS011;19905;53.370;-6.314;2024-01-07T13:48:42;56.55;;;25.02;;
29934;SDS011;19905;53.370;-6.314;2024-01-07T13:51:11;60.33;;;26.20;;
29934;SDS011;19905;53.370;-6.314;2024-01-07T13:53:40;56.47;;;25.63;;
29934;SDS011;19905;53.370;-6.314;2024-01-07T13:56:09;60.03;;;27.83;;
29934;SDS011;19905;53.370;-6.314;2024-01-07T13:58:37;58.42;;;29.42;;
29934;SDS011;19905;53.370;-6.314;2024-01-07T14:01:08;54.50;;;25.52;;
29934;SDS011;19905;53.370;-6.314;2024-01-07T14:03:36;56.45;;;26.20;;
29934;SDS011;19905;53.370;-6.314;2024-01-07T14:06:04;61.25;;;28.27;;
29934;SDS011;19905;53.370;-6.314;2024-01-07T14:08:33;53.28;;;25.60;;
29934;SDS011;19905;53.370;-6.314;2024-01-07T14:11:03;58.90;;;26.65;;
29934;SDS011;19905;53.370;-6.314;2024-01-07T14:13:33;58.58;;;27.20;;
29934;SDS011;19905;53.370;-6.314;2024-01-07T14:16:03;60.00;;;25.77;;
29934;SDS011;19905;53.370;-6.314;2024-01-07T14:18:32;58.10;;;26.83;;
29934;SDS011;19905;53.370;-6.314;2024-01-07T14:21:00;55.03;;;25.30;;
29934;SDS011;19905;53.370;-6.314;2024-01-07T14:23:29;53.30;;;24.88;;
29934;SDS011;19905;53.370;-6.314;2024-01-07T14:25:58;42.67;;;20.60;;
29934;SDS011;19905;53.370;-6.314;2024-01-07T14:28:28;38.13;;;21.08;;
29934;SDS011;19905;53.370;-6.314;2024-01-07T14:30:56;47.05;;;21.85;;
29934;SDS011;19905;53.370;-6.314;2024-01-07T14:33:25;47.92;;;23.80;;
29934;SDS011;19905;53.370;-6.314;2024-01-07T14:35:54;50.10;;;23.83;;
29934;SDS011;19905;53.370;-6.314;2024-01-07T14:38:22;52.05;;;25.00;;
29934;SDS011;19905;53.370;-6.314;2024-01-07T14:40:52;54.90;;;28.08;;
29934;SDS011;19905;53.370;-6.314;2024-01-07T14:43:20;48.55;;;25.92;;
29934;SDS011;19905;53.370;-6.314;2024-01-07T14:45:50;59.05;;;28.17;;